sensor_id;sensor_type;location;lat;lon;timestamp;P1;durP1;ratioP1;P2;durP2;ratioP2
39426;SDS011;25938;48.470;1.486;2022-11-30T00:01:44;14.07;;;10.48;;
39426;SDS011;25938;48.470;1.486;2022-11-30T00:04:10;14.65;;;10.15;;
39426;SDS011;25938;48.470;1.486;2022-11-30T00:06:36;12.57;;;8.98;;
39426;SDS011;25938;48.470;1.486;2022-11-30T00:09:06;11.73;;;8.52;;
39426;SDS011;25938;48.470;1.486;2022-11-30T00:11:32;12.23;;;9.73;;
39426;SDS011;25938;48.470;1.486;2022-11-30T00:13:58;12.48;;;8.68;;
39426;SDS011;25938;48.470;1.486;2022-11-30T00:16:24;14.27;;;10.00;;
39426;SDS011;25938;48.470;1.486;2022-11-30T00:18:51;11.95;;;9.85;;
39426;SDS011;25938;48.470;1.486;2022-11-30T00:21:17;12.73;;;9.48;;
39426;SDS011;25938;48.470;1.486;2022-11-30T00:23:44;13.55;;;8.52;;
39426;SDS011;25938;48.470;1.486;2022-11-30T00:26:12;12.65;;;9.48;;
39426;SDS011;25938;48.470;1.486;2022-11-30T00:28:38;13.82;;;10.80;;
39426;SDS011;25938;48.470;1.486;2022-11-30T00:31:06;12.82;;;8.57;;
39426;SDS011;25938;48.470;1.486;2022-11-30T00:33:33;12.18;;;9.13;;
39426;SDS011;25938;48.470;1.486;2022-11-30T00:36:03;14.70;;;10.80;;
39426;SDS011;25938;48.470;1.486;2022-11-30T00:38:30;11.15;;;9.98;;
39426;SDS011;25938;48.470;1.486;2022-11-30T00:40:56;12.35;;;9.82;;
39426;SDS011;25938;48.470;1.486;2022-11-30T00:43:22;13.98;;;9.70;;
39426;SDS011;25938;48.470;1.486;2022-11-30T00:45:48;11.23;;;10.10;;
39426;SDS011;25938;48.470;1.486;2022-11-30T00:48:14;13.60;;;9.25;;
39426;SDS011;25938;48.470;1.486;2022-11-30T00:50:40;11.05;;;8.77;;
39426;SDS011;25938;48.470;1.486;2022-11-30T00:53:06;13.32;;;9.70;;
39426;SDS011;25938;48.470;1.486;2022-11-30T00:55:32;11.52;;;9.55;;
39426;SDS011;25938;48.470;1.486;2022-11-30T00:57:59;10.27;;;8.82;;
39426;SDS011;25938;48.470;1.486;2022-11-30T01:00:25;12.50;;;9.73;;
39426;SDS011;25938;48.470;1.486;2022-11-30T01:02:55;13.90;;;9.52;;
39426;SDS011;25938;48.470;1.486;2022-11-30T01:05:21;12.90;;;9.63;;
39426;SDS011;25938;48.470;1.486;2022-11-30T01:07:47;11.40;;;9.07;;
39426;SDS011;25938;48.470;1.486;2022-11-30T01:10:13;12.60;;;9.40;;
39426;SDS011;25938;48.470;1.486;2022-11-30T01:12:39;11.02;;;7.65;;
39426;SDS011;25938;48.470;1.486;2022-11-30T01:15:05;12.27;;;8.73;;
39426;SDS011;25938;48.470;1.486;2022-11-30T01:17:31;12.00;;;9.52;;
39426;SDS011;25938;48.470;1.486;2022-11-30T01:19:57;12.13;;;9.20;;
39426;SDS011;25938;48.470;1.486;2022-11-30T01:22:23;11.07;;;8.68;;
39426;SDS011;25938;48.470;1.486;2022-11-30T01:24:49;11.05;;;8.38;;
39426;SDS011;25938;48.470;1.486;2022-11-30T01:27:15;10.50;;;8.93;;
39426;SDS011;25938;48.470;1.486;2022-11-30T01:29:41;12.70;;;10.18;;
39426;SDS011;25938;48.470;1.486;2022-11-30T01:32:07;11.68;;;8.88;;
39426;SDS011;25938;48.470;1.486;2022-11-30T01:34:34;11.80;;;9.02;;
39426;SDS011;25938;48.470;1.486;2022-11-30T01:37:00;10.25;;;9.15;;
39426;SDS011;25938;48.470;1.486;2022-11-30T01:39:26;11.85;;;9.77;;
39426;SDS011;25938;48.470;1.486;2022-11-30T01:41:52;12.00;;;8.80;;
39426;SDS011;25938;48.470;1.486;2022-11-30T01:49:18;11.23;;;8.27;;
39426;SDS011;25938;48.470;1.486;2022-11-30T01:51:49;11.15;;;9.73;;
39426;SDS011;25938;48.470;1.486;2022-11-30T01:54:17;10.82;;;8.95;;
39426;SDS011;25938;48.470;1.486;2022-11-30T01:56:48;13.55;;;8.75;;
39426;SDS011;25938;48.470;1.486;2022-11-30T01:59:15;11.82;;;9.93;;
39426;SDS011;25938;48.470;1.486;2022-11-30T02:01:42;11.60;;;9.05;;
39426;SDS011;25938;48.470;1.486;2022-11-30T02:04:27;11.00;;;8.10;;
39426;SDS011;25938;48.470;1.486;2022-11-30T02:06:57;14.05;;;9.38;;
39426;SDS011;25938;48.470;1.486;2022-11-30T02:09:25;11.82;;;8.70;;
39426;SDS011;25938;48.470;1.486;2022-11-30T02:11:51;13.13;;;10.00;;
39426;SDS011;25938;48.470;1.486;2022-11-30T02:14:30;9.93;;;8.18;;
39426;SDS011;25938;48.470;1.486;2022-11-30T02:17:19;10.77;;;9.10;;
39426;SDS011;25938;48.470;1.486;2022-11-30T02:22:40;9.77;;;8.35;;
39426;SDS011;25938;48.470;1.486;2022-11-30T02:30:19;11.50;;;8.52;;
39426;SDS011;25938;48.470;1.486;2022-11-30T02:32:47;10.88;;;8.90;;
39426;SDS011;25938;48.470;1.486;2022-11-30T02:35:14;10.25;;;8.00;;
39426;SDS011;25938;48.470;1.486;2022-11-30T02:37:42;14.07;;;9.20;;
39426;SDS011;25938;48.470;1.486;2022-11-30T02:40:09;8.25;;;7.10;;
39426;SDS011;25938;48.470;1.486;2022-11-30T02:42:35;9.70;;;8.20;;
39426;SDS011;25938;48.470;1.486;2022-11-30T02:45:01;10.30;;;8.85;;
39426;SDS011;25938;48.470;1.486;2022-11-30T02:47:35;10.90;;;7.75;;
39426;SDS011;25938;48.470;1.486;2022-11-30T02:50:24;10.45;;;7.85;;
39426;SDS011;25938;48.470;1.486;2022-11-30T02:52:53;11.60;;;8.43;;
39426;SDS011;25938;48.470;1.486;2022-11-30T02:55:19;11.48;;;8.25;;
39426;SDS011;25938;48.470;1.486;2022-11-30T02:57:45;10.93;;;7.78;;
39426;SDS011;25938;48.470;1.486;2022-11-30T03:00:12;13.40;;;8.63;;
39426;SDS011;25938;48.470;1.486;2022-11-30T03:02:39;10.32;;;8.13;;
39426;SDS011;25938;48.470;1.486;2022-11-30T03:05:05;9.50;;;8.05;;
39426;SDS011;25938;48.470;1.486;2022-11-30T03:07:32;8.90;;;7.90;;
39426;SDS011;25938;48.470;1.486;2022-11-30T03:09:58;10.82;;;7.28;;
39426;SDS011;25938;48.470;1.486;2022-11-30T03:12:24;10.38;;;7.38;;
39426;SDS011;25938;48.470;1.486;2022-11-30T03:14:50;9.30;;;8.25;;
39426;SDS011;25938;48.470;1.486;2022-11-30T03:17:16;11.38;;;8.23;;
39426;SDS011;25938;48.470;1.486;2022-11-30T03:19:43;10.18;;;7.82;;
39426;SDS011;25938;48.470;1.486;2022-11-30T03:22:09;12.85;;;8.05;;
39426;SDS011;25938;48.470;1.486;2022-11-30T03:24:35;9.25;;;6.85;;
39426;SDS011;25938;48.470;1.486;2022-11-30T03:27:01;7.93;;;6.75;;
39426;SDS011;25938;48.470;1.486;2022-11-30T03:29:27;10.23;;;7.18;;
39426;SDS011;25938;48.470;1.486;2022-11-30T03:31:53;9.85;;;7.90;;
39426;SDS011;25938;48.470;1.486;2022-11-30T03:34:19;10.40;;;8.43;;
39426;SDS011;25938;48.470;1.486;2022-11-30T03:36:46;8.35;;;7.00;;
39426;SDS011;25938;48.470;1.486;2022-11-30T03:39:12;9.88;;;7.78;;
39426;SDS011;25938;48.470;1.486;2022-11-30T03:41:38;8.77;;;7.70;;
39426;SDS011;25938;48.470;1.486;2022-11-30T03:44:04;8.90;;;7.20;;
39426;SDS011;25938;48.470;1.486;2022-11-30T03:46:30;8.75;;;6.93;;
39426;SDS011;25938;48.470;1.486;2022-11-30T03:48:57;11.60;;;8.13;;
39426;SDS011;25938;48.470;1.486;2022-11-30T03:51:24;11.32;;;7.47;;
39426;SDS011;25938;48.470;1.486;2022-11-30T03:53:50;9.20;;;6.72;;
39426;SDS011;25938;48.470;1.486;2022-11-30T03:56:16;10.20;;;6.85;;
39426;SDS011;25938;48.470;1.486;2022-11-30T03:58:42;10.45;;;6.90;;
39426;SDS011;25938;48.470;1.486;2022-11-30T04:01:09;7.60;;;6.75;;
39426;SDS011;25938;48.470;1.486;2022-11-30T04:03:36;10.52;;;7.57;;
39426;SDS011;25938;48.470;1.486;2022-11-30T04:06:03;11.90;;;7.47;;
39426;SDS011;25938;48.470;1.486;2022-11-30T04:08:29;10.90;;;7.35;;
39426;SDS011;25938;48.470;1.486;2022-11-30T04:10:56;11.38;;;7.30;;
39426;SDS011;25938;48.470;1.486;2022-11-30T04:13:23;9.13;;;7.10;;
39426;SDS011;25938;48.470;1.486;2022-11-30T04:15:50;11.63;;;7.80;;
39426;SDS011;25938;48.470;1.486;2022-11-30T04:18:17;9.13;;;6.97;;
39426;SDS011;25938;48.470;1.486;2022-11-30T04:20:43;11.02;;;7.35;;
39426;SDS011;25938;48.470;1.486;2022-11-30T04:23:09;11.57;;;7.60;;
39426;SDS011;25938;48.470;1.486;2022-11-30T04:25:36;9.85;;;7.05;;
39426;SDS011;25938;48.470;1.486;2022-11-30T04:28:02;10.35;;;7.88;;
39426;SDS011;25938;48.470;1.486;2022-11-30T04:30:28;11.50;;;7.22;;
39426;SDS011;25938;48.470;1.486;2022-11-30T04:32:54;9.07;;;6.95;;
39426;SDS011;25938;48.470;1.486;2022-11-30T04:35:21;11.52;;;7.32;;
39426;SDS011;25938;48.470;1.486;2022-11-30T04:37:47;8.50;;;6.40;;
39426;SDS011;25938;48.470;1.486;2022-11-30T04:40:13;8.82;;;7.25;;
39426;SDS011;25938;48.470;1.486;2022-11-30T04:42:39;8.23;;;6.82;;
39426;SDS011;25938;48.470;1.486;2022-11-30T04:45:05;11.18;;;7.00;;
39426;SDS011;25938;48.470;1.486;2022-11-30T04:47:32;10.75;;;6.72;;
39426;SDS011;25938;48.470;1.486;2022-11-30T04:49:58;10.95;;;6.78;;
39426;SDS011;25938;48.470;1.486;2022-11-30T04:52:24;12.95;;;6.88;;
39426;SDS011;25938;48.470;1.486;2022-11-30T04:54:50;8.18;;;6.45;;
39426;SDS011;25938;48.470;1.486;2022-11-30T04:57:17;8.88;;;6.57;;
39426;SDS011;25938;48.470;1.486;2022-11-30T04:59:43;8.07;;;6.32;;
39426;SDS011;25938;48.470;1.486;2022-11-30T05:02:09;9.07;;;6.28;;
39426;SDS011;25938;48.470;1.486;2022-11-30T05:04:35;8.90;;;7.00;;
39426;SDS011;25938;48.470;1.486;2022-11-30T05:07:01;7.85;;;5.43;;
39426;SDS011;25938;48.470;1.486;2022-11-30T05:09:27;7.20;;;5.45;;
39426;SDS011;25938;48.470;1.486;2022-11-30T05:11:53;8.15;;;5.65;;
39426;SDS011;25938;48.470;1.486;2022-11-30T05:14:19;8.93;;;5.93;;
39426;SDS011;25938;48.470;1.486;2022-11-30T05:16:46;8.77;;;5.75;;
39426;SDS011;25938;48.470;1.486;2022-11-30T05:19:12;7.05;;;5.55;;
39426;SDS011;25938;48.470;1.486;2022-11-30T05:21:38;11.10;;;6.82;;
39426;SDS011;25938;48.470;1.486;2022-11-30T05:24:05;10.05;;;5.30;;
39426;SDS011;25938;48.470;1.486;2022-11-30T05:26:31;6.40;;;5.03;;
39426;SDS011;25938;48.470;1.486;2022-11-30T05:28:57;8.98;;;5.65;;
39426;SDS011;25938;48.470;1.486;2022-11-30T05:31:23;9.25;;;5.10;;
39426;SDS011;25938;48.470;1.486;2022-11-30T05:33:50;9.30;;;6.20;;
39426;SDS011;25938;48.470;1.486;2022-11-30T05:36:16;8.18;;;6.05;;
39426;SDS011;25938;48.470;1.486;2022-11-30T05:38:42;10.15;;;5.60;;
39426;SDS011;25938;48.470;1.486;2022-11-30T05:41:08;9.35;;;5.63;;
39426;SDS011;25938;48.470;1.486;2022-11-30T05:43:34;7.20;;;5.13;;
39426;SDS011;25938;48.470;1.486;2022-11-30T05:46:01;8.13;;;6.20;;
39426;SDS011;25938;48.470;1.486;2022-11-30T05:48:27;9.20;;;6.85;;
39426;SDS011;25938;48.470;1.486;2022-11-30T05:50:53;6.90;;;5.30;;
39426;SDS011;25938;48.470;1.486;2022-11-30T05:53:19;6.35;;;4.05;;
39426;SDS011;25938;48.470;1.486;2022-11-30T05:55:45;8.77;;;5.78;;
39426;SDS011;25938;48.470;1.486;2022-11-30T05:58:12;7.63;;;4.78;;
39426;SDS011;25938;48.470;1.486;2022-11-30T06:00:38;11.13;;;5.93;;
39426;SDS011;25938;48.470;1.486;2022-11-30T06:03:04;8.80;;;5.47;;
39426;SDS011;25938;48.470;1.486;2022-11-30T06:05:32;6.22;;;4.53;;
39426;SDS011;25938;48.470;1.486;2022-11-30T06:07:59;9.35;;;4.78;;
39426;SDS011;25938;48.470;1.486;2022-11-30T06:10:25;7.20;;;5.22;;
39426;SDS011;25938;48.470;1.486;2022-11-30T06:12:51;8.23;;;6.15;;
39426;SDS011;25938;48.470;1.486;2022-11-30T06:15:17;9.57;;;5.40;;
39426;SDS011;25938;48.470;1.486;2022-11-30T06:17:43;7.20;;;5.43;;
39426;SDS011;25938;48.470;1.486;2022-11-30T06:20:09;8.55;;;6.20;;
39426;SDS011;25938;48.470;1.486;2022-11-30T06:22:36;7.78;;;5.43;;
39426;SDS011;25938;48.470;1.486;2022-11-30T06:25:02;8.52;;;5.65;;
39426;SDS011;25938;48.470;1.486;2022-11-30T06:27:29;7.43;;;4.72;;
39426;SDS011;25938;48.470;1.486;2022-11-30T06:29:55;10.77;;;6.90;;
39426;SDS011;25938;48.470;1.486;2022-11-30T06:32:21;10.48;;;7.05;;
39426;SDS011;25938;48.470;1.486;2022-11-30T06:34:47;7.97;;;6.70;;
39426;SDS011;25938;48.470;1.486;2022-11-30T06:37:13;11.90;;;6.35;;
39426;SDS011;25938;48.470;1.486;2022-11-30T06:39:39;12.15;;;6.93;;
39426;SDS011;25938;48.470;1.486;2022-11-30T06:42:05;12.63;;;6.90;;
39426;SDS011;25938;48.470;1.486;2022-11-30T06:44:31;7.97;;;6.10;;
39426;SDS011;25938;48.470;1.486;2022-11-30T06:46:57;11.90;;;7.05;;
39426;SDS011;25938;48.470;1.486;2022-11-30T06:49:23;9.60;;;6.75;;
39426;SDS011;25938;48.470;1.486;2022-11-30T06:51:50;12.95;;;8.25;;
39426;SDS011;25938;48.470;1.486;2022-11-30T06:54:16;15.80;;;9.82;;
39426;SDS011;25938;48.470;1.486;2022-11-30T06:56:42;15.35;;;9.18;;
39426;SDS011;25938;48.470;1.486;2022-11-30T06:59:08;12.38;;;9.35;;
39426;SDS011;25938;48.470;1.486;2022-11-30T07:01:34;9.20;;;7.43;;
39426;SDS011;25938;48.470;1.486;2022-11-30T07:04:00;13.32;;;7.15;;
39426;SDS011;25938;48.470;1.486;2022-11-30T07:06:26;11.82;;;7.05;;
39426;SDS011;25938;48.470;1.486;2022-11-30T07:08:52;9.60;;;6.50;;
39426;SDS011;25938;48.470;1.486;2022-11-30T07:11:18;9.63;;;7.25;;
39426;SDS011;25938;48.470;1.486;2022-11-30T07:13:44;8.82;;;6.15;;
39426;SDS011;25938;48.470;1.486;2022-11-30T07:16:10;11.30;;;6.53;;
39426;SDS011;25938;48.470;1.486;2022-11-30T07:18:36;8.82;;;6.28;;
39426;SDS011;25938;48.470;1.486;2022-11-30T07:21:04;8.05;;;6.20;;
39426;SDS011;25938;48.470;1.486;2022-11-30T07:23:30;10.90;;;6.63;;
39426;SDS011;25938;48.470;1.486;2022-11-30T07:26:15;8.38;;;5.82;;
39426;SDS011;25938;48.470;1.486;2022-11-30T07:28:42;7.65;;;5.45;;
39426;SDS011;25938;48.470;1.486;2022-11-30T07:31:20;8.45;;;5.35;;
39426;SDS011;25938;48.470;1.486;2022-11-30T07:33:47;8.25;;;5.75;;
39426;SDS011;25938;48.470;1.486;2022-11-30T07:36:13;6.97;;;5.18;;
39426;SDS011;25938;48.470;1.486;2022-11-30T07:38:40;8.50;;;6.00;;
39426;SDS011;25938;48.470;1.486;2022-11-30T07:41:06;7.32;;;5.25;;
39426;SDS011;25938;48.470;1.486;2022-11-30T07:43:32;7.40;;;5.25;;
39426;SDS011;25938;48.470;1.486;2022-11-30T07:45:58;7.60;;;5.50;;
39426;SDS011;25938;48.470;1.486;2022-11-30T07:48:24;9.02;;;5.65;;
39426;SDS011;25938;48.470;1.486;2022-11-30T07:50:50;6.70;;;5.50;;
39426;SDS011;25938;48.470;1.486;2022-11-30T07:53:17;8.70;;;5.82;;
39426;SDS011;25938;48.470;1.486;2022-11-30T07:55:43;8.48;;;5.63;;
39426;SDS011;25938;48.470;1.486;2022-11-30T07:58:09;9.10;;;5.78;;
39426;SDS011;25938;48.470;1.486;2022-11-30T08:00:36;6.65;;;5.10;;
39426;SDS011;25938;48.470;1.486;2022-11-30T08:03:02;8.00;;;5.43;;
39426;SDS011;25938;48.470;1.486;2022-11-30T08:05:28;7.18;;;5.10;;
39426;SDS011;25938;48.470;1.486;2022-11-30T08:07:55;10.52;;;5.90;;
39426;SDS011;25938;48.470;1.486;2022-11-30T08:10:21;10.10;;;6.00;;
39426;SDS011;25938;48.470;1.486;2022-11-30T08:12:47;9.95;;;5.78;;
39426;SDS011;25938;48.470;1.486;2022-11-30T08:15:14;7.75;;;5.28;;
39426;SDS011;25938;48.470;1.486;2022-11-30T08:17:40;7.55;;;5.13;;
39426;SDS011;25938;48.470;1.486;2022-11-30T08:20:07;9.00;;;5.30;;
39426;SDS011;25938;48.470;1.486;2022-11-30T08:22:33;6.55;;;4.97;;
39426;SDS011;25938;48.470;1.486;2022-11-30T08:25:00;10.80;;;4.63;;
39426;SDS011;25938;48.470;1.486;2022-11-30T08:27:26;7.75;;;4.82;;
39426;SDS011;25938;48.470;1.486;2022-11-30T08:29:52;6.72;;;4.32;;
39426;SDS011;25938;48.470;1.486;2022-11-30T08:32:18;7.88;;;5.25;;
39426;SDS011;25938;48.470;1.486;2022-11-30T08:34:45;5.85;;;4.22;;
39426;SDS011;25938;48.470;1.486;2022-11-30T08:37:11;5.45;;;4.40;;
39426;SDS011;25938;48.470;1.486;2022-11-30T08:39:37;7.78;;;4.18;;
39426;SDS011;25938;48.470;1.486;2022-11-30T08:42:03;9.50;;;4.43;;
39426;SDS011;25938;48.470;1.486;2022-11-30T08:44:29;9.68;;;4.85;;
39426;SDS011;25938;48.470;1.486;2022-11-30T08:46:55;8.90;;;6.72;;
39426;SDS011;25938;48.470;1.486;2022-11-30T08:49:22;8.13;;;4.57;;
39426;SDS011;25938;48.470;1.486;2022-11-30T08:51:48;5.43;;;4.00;;
39426;SDS011;25938;48.470;1.486;2022-11-30T08:54:15;5.78;;;4.22;;
39426;SDS011;25938;48.470;1.486;2022-11-30T08:56:41;4.85;;;4.35;;
39426;SDS011;25938;48.470;1.486;2022-11-30T08:59:07;5.93;;;4.55;;
39426;SDS011;25938;48.470;1.486;2022-11-30T09:01:33;7.03;;;4.60;;
39426;SDS011;25938;48.470;1.486;2022-11-30T09:03:59;9.95;;;5.50;;
39426;SDS011;25938;48.470;1.486;2022-11-30T09:06:28;18.17;;;9.30;;
39426;SDS011;25938;48.470;1.486;2022-11-30T09:08:55;9.70;;;5.95;;
39426;SDS011;25938;48.470;1.486;2022-11-30T09:11:26;11.23;;;5.35;;
39426;SDS011;25938;48.470;1.486;2022-11-30T09:13:53;10.32;;;5.40;;
39426;SDS011;25938;48.470;1.486;2022-11-30T09:16:19;7.75;;;4.82;;
39426;SDS011;25938;48.470;1.486;2022-11-30T09:18:46;7.07;;;4.57;;
39426;SDS011;25938;48.470;1.486;2022-11-30T09:21:13;8.27;;;5.00;;
39426;SDS011;25938;48.470;1.486;2022-11-30T09:23:40;6.82;;;5.38;;
39426;SDS011;25938;48.470;1.486;2022-11-30T09:26:07;9.88;;;6.40;;
39426;SDS011;25938;48.470;1.486;2022-11-30T09:28:34;7.10;;;5.20;;
39426;SDS011;25938;48.470;1.486;2022-11-30T09:31:01;14.52;;;6.25;;
39426;SDS011;25938;48.470;1.486;2022-11-30T09:33:27;9.55;;;5.82;;
39426;SDS011;25938;48.470;1.486;2022-11-30T09:35:57;7.20;;;4.13;;
39426;SDS011;25938;48.470;1.486;2022-11-30T09:38:23;6.30;;;4.40;;
39426;SDS011;25938;48.470;1.486;2022-11-30T09:40:53;7.13;;;5.43;;
39426;SDS011;25938;48.470;1.486;2022-11-30T09:46:12;7.75;;;5.15;;
39426;SDS011;25938;48.470;1.486;2022-11-30T09:51:07;6.53;;;4.25;;
39426;SDS011;25938;48.470;1.486;2022-11-30T09:53:37;5.47;;;3.63;;
39426;SDS011;25938;48.470;1.486;2022-11-30T09:56:05;6.43;;;5.28;;
39426;SDS011;25938;48.470;1.486;2022-11-30T10:01:04;7.15;;;4.20;;
39426;SDS011;25938;48.470;1.486;2022-11-30T10:03:34;8.20;;;4.70;;
39426;SDS011;25938;48.470;1.486;2022-11-30T10:06:06;8.02;;;4.65;;
39426;SDS011;25938;48.470;1.486;2022-11-30T10:08:51;9.15;;;5.63;;
39426;SDS011;25938;48.470;1.486;2022-11-30T10:21:42;8.57;;;6.03;;
39426;SDS011;25938;48.470;1.486;2022-11-30T10:24:18;9.40;;;5.88;;
39426;SDS011;25938;48.470;1.486;2022-11-30T10:26:53;9.77;;;5.25;;
39426;SDS011;25938;48.470;1.486;2022-11-30T10:29:26;8.50;;;5.80;;
39426;SDS011;25938;48.470;1.486;2022-11-30T10:31:55;8.20;;;4.57;;
39426;SDS011;25938;48.470;1.486;2022-11-30T10:36:50;9.98;;;5.28;;
39426;SDS011;25938;48.470;1.486;2022-11-30T10:39:31;8.80;;;4.43;;
39426;SDS011;25938;48.470;1.486;2022-11-30T10:42:08;6.00;;;4.43;;
39426;SDS011;25938;48.470;1.486;2022-11-30T10:44:37;10.13;;;4.82;;
39426;SDS011;25938;48.470;1.486;2022-11-30T10:47:13;10.13;;;5.25;;
39426;SDS011;25938;48.470;1.486;2022-11-30T10:49:49;7.47;;;3.75;;
39426;SDS011;25938;48.470;1.486;2022-11-30T10:52:16;7.30;;;3.85;;
39426;SDS011;25938;48.470;1.486;2022-11-30T10:54:43;4.70;;;3.55;;
39426;SDS011;25938;48.470;1.486;2022-11-30T10:57:09;6.40;;;3.80;;
39426;SDS011;25938;48.470;1.486;2022-11-30T10:59:43;4.63;;;3.33;;
39426;SDS011;25938;48.470;1.486;2022-11-30T11:05:06;4.53;;;3.58;;
39426;SDS011;25938;48.470;1.486;2022-11-30T11:07:32;5.70;;;3.33;;
39426;SDS011;25938;48.470;1.486;2022-11-30T11:09:59;6.28;;;3.75;;
39426;SDS011;25938;48.470;1.486;2022-11-30T11:12:26;7.55;;;4.13;;
39426;SDS011;25938;48.470;1.486;2022-11-30T11:17:39;5.47;;;3.78;;
39426;SDS011;25938;48.470;1.486;2022-11-30T11:20:16;8.65;;;4.18;;
39426;SDS011;25938;48.470;1.486;2022-11-30T11:22:51;5.22;;;3.50;;
39426;SDS011;25938;48.470;1.486;2022-11-30T11:25:20;4.15;;;3.08;;
39426;SDS011;25938;48.470;1.486;2022-11-30T11:27:51;4.72;;;3.65;;
39426;SDS011;25938;48.470;1.486;2022-11-30T11:30:26;6.38;;;3.47;;
39426;SDS011;25938;48.470;1.486;2022-11-30T11:33:00;4.82;;;3.40;;
39426;SDS011;25938;48.470;1.486;2022-11-30T11:35:37;4.78;;;3.60;;
39426;SDS011;25938;48.470;1.486;2022-11-30T11:38:16;3.38;;;2.90;;
39426;SDS011;25938;48.470;1.486;2022-11-30T11:40:50;4.13;;;3.08;;
39426;SDS011;25938;48.470;1.486;2022-11-30T11:43:16;4.63;;;4.20;;
39426;SDS011;25938;48.470;1.486;2022-11-30T11:45:48;3.72;;;3.33;;
39426;SDS011;25938;48.470;1.486;2022-11-30T11:51:00;3.88;;;3.20;;
39426;SDS011;25938;48.470;1.486;2022-11-30T11:55:59;3.55;;;2.60;;
39426;SDS011;25938;48.470;1.486;2022-11-30T11:58:32;3.63;;;2.70;;
39426;SDS011;25938;48.470;1.486;2022-11-30T12:01:00;3.97;;;2.63;;
39426;SDS011;25938;48.470;1.486;2022-11-30T12:03:36;4.53;;;3.05;;
39426;SDS011;25938;48.470;1.486;2022-11-30T12:06:11;4.50;;;2.78;;
39426;SDS011;25938;48.470;1.486;2022-11-30T12:11:17;3.58;;;2.38;;
39426;SDS011;25938;48.470;1.486;2022-11-30T12:13:45;4.15;;;2.38;;
39426;SDS011;25938;48.470;1.486;2022-11-30T12:37:13;3.90;;;3.28;;
39426;SDS011;25938;48.470;1.486;2022-11-30T12:52:54;3.80;;;1.90;;
39426;SDS011;25938;48.470;1.486;2022-11-30T13:03:51;1.85;;;1.75;;
39426;SDS011;25938;48.470;1.486;2022-11-30T13:05:58;2.00;;;1.73;;
39426;SDS011;25938;48.470;1.486;2022-11-30T13:13:56;6.57;;;3.70;;
39426;SDS011;25938;48.470;1.486;2022-11-30T13:16:24;4.45;;;2.00;;
39426;SDS011;25938;48.470;1.486;2022-11-30T13:18:51;3.83;;;2.35;;
39426;SDS011;25938;48.470;1.486;2022-11-30T13:21:31;4.03;;;2.13;;
39426;SDS011;25938;48.470;1.486;2022-11-30T13:26:45;4.57;;;2.88;;
39426;SDS011;25938;48.470;1.486;2022-11-30T13:29:19;4.13;;;2.92;;
39426;SDS011;25938;48.470;1.486;2022-11-30T13:31:51;3.45;;;2.25;;
39426;SDS011;25938;48.470;1.486;2022-11-30T13:34:22;4.47;;;2.85;;
39426;SDS011;25938;48.470;1.486;2022-11-30T13:36:49;3.63;;;2.65;;
39426;SDS011;25938;48.470;1.486;2022-11-30T13:39:28;3.38;;;2.50;;
39426;SDS011;25938;48.470;1.486;2022-11-30T13:44:31;2.95;;;2.63;;
39426;SDS011;25938;48.470;1.486;2022-11-30T13:47:01;5.00;;;3.75;;
39426;SDS011;25938;48.470;1.486;2022-11-30T13:49:31;4.75;;;2.30;;
39426;SDS011;25938;48.470;1.486;2022-11-30T13:52:01;3.35;;;2.67;;
39426;SDS011;25938;48.470;1.486;2022-11-30T13:54:46;6.05;;;3.05;;
39426;SDS011;25938;48.470;1.486;2022-11-30T14:00:02;4.72;;;3.28;;
39426;SDS011;25938;48.470;1.486;2022-11-30T14:07:42;4.82;;;2.60;;
39426;SDS011;25938;48.470;1.486;2022-11-30T14:12:58;5.40;;;3.20;;
39426;SDS011;25938;48.470;1.486;2022-11-30T14:20:40;5.18;;;2.97;;
39426;SDS011;25938;48.470;1.486;2022-11-30T14:23:11;7.57;;;3.30;;
39426;SDS011;25938;48.470;1.486;2022-11-30T14:25:39;5.28;;;2.90;;
39426;SDS011;25938;48.470;1.486;2022-11-30T14:28:07;5.97;;;3.85;;
39426;SDS011;25938;48.470;1.486;2022-11-30T14:30:37;4.15;;;2.50;;
39426;SDS011;25938;48.470;1.486;2022-11-30T14:33:05;4.32;;;3.05;;
39426;SDS011;25938;48.470;1.486;2022-11-30T14:35:36;6.60;;;2.95;;
39426;SDS011;25938;48.470;1.486;2022-11-30T14:38:04;4.18;;;3.33;;
39426;SDS011;25938;48.470;1.486;2022-11-30T14:40:38;6.32;;;4.05;;
39426;SDS011;25938;48.470;1.486;2022-11-30T14:43:15;6.18;;;3.15;;
39426;SDS011;25938;48.470;1.486;2022-11-30T14:45:41;7.32;;;3.45;;
39426;SDS011;25938;48.470;1.486;2022-11-30T14:48:11;3.67;;;3.30;;
39426;SDS011;25938;48.470;1.486;2022-11-30T14:50:41;7.05;;;3.05;;
39426;SDS011;25938;48.470;1.486;2022-11-30T14:55:39;5.43;;;3.33;;
39426;SDS011;25938;48.470;1.486;2022-11-30T15:00:41;3.53;;;3.00;;
39426;SDS011;25938;48.470;1.486;2022-11-30T15:03:19;7.13;;;3.38;;
39426;SDS011;25938;48.470;1.486;2022-11-30T15:05:58;4.22;;;2.88;;
39426;SDS011;25938;48.470;1.486;2022-11-30T15:08:26;5.03;;;3.17;;
39426;SDS011;25938;48.470;1.486;2022-11-30T15:10:54;4.25;;;3.03;;
39426;SDS011;25938;48.470;1.486;2022-11-30T15:13:22;3.60;;;2.50;;
39426;SDS011;25938;48.470;1.486;2022-11-30T15:15:49;7.95;;;4.00;;
39426;SDS011;25938;48.470;1.486;2022-11-30T15:18:16;4.90;;;3.10;;
39426;SDS011;25938;48.470;1.486;2022-11-30T15:20:43;4.63;;;2.35;;
39426;SDS011;25938;48.470;1.486;2022-11-30T15:23:12;7.32;;;3.17;;
39426;SDS011;25938;48.470;1.486;2022-11-30T15:25:39;3.58;;;2.45;;
39426;SDS011;25938;48.470;1.486;2022-11-30T15:28:08;4.75;;;2.78;;
39426;SDS011;25938;48.470;1.486;2022-11-30T15:30:36;6.07;;;3.40;;
39426;SDS011;25938;48.470;1.486;2022-11-30T15:33:02;3.30;;;2.45;;
39426;SDS011;25938;48.470;1.486;2022-11-30T15:35:29;4.90;;;3.33;;
39426;SDS011;25938;48.470;1.486;2022-11-30T15:37:55;7.07;;;2.55;;
39426;SDS011;25938;48.470;1.486;2022-11-30T15:40:24;4.68;;;3.10;;
39426;SDS011;25938;48.470;1.486;2022-11-30T15:42:53;3.33;;;3.00;;
39426;SDS011;25938;48.470;1.486;2022-11-30T15:47:52;4.85;;;2.83;;
39426;SDS011;25938;48.470;1.486;2022-11-30T15:52:56;5.65;;;3.05;;
39426;SDS011;25938;48.470;1.486;2022-11-30T15:55:38;8.57;;;3.50;;
39426;SDS011;25938;48.470;1.486;2022-11-30T15:58:04;4.38;;;2.88;;
39426;SDS011;25938;48.470;1.486;2022-11-30T16:00:30;7.40;;;3.42;;
39426;SDS011;25938;48.470;1.486;2022-11-30T16:03:06;5.40;;;3.30;;
39426;SDS011;25938;48.470;1.486;2022-11-30T16:05:32;5.15;;;3.22;;
39426;SDS011;25938;48.470;1.486;2022-11-30T16:07:58;4.88;;;3.10;;
39426;SDS011;25938;48.470;1.486;2022-11-30T16:12:52;3.45;;;2.53;;
39426;SDS011;25938;48.470;1.486;2022-11-30T16:17:48;8.60;;;2.80;;
39426;SDS011;25938;48.470;1.486;2022-11-30T16:20:15;5.28;;;3.25;;
39426;SDS011;25938;48.470;1.486;2022-11-30T16:22:42;5.60;;;2.65;;
39426;SDS011;25938;48.470;1.486;2022-11-30T16:25:16;4.25;;;3.47;;
39426;SDS011;25938;48.470;1.486;2022-11-30T16:27:42;4.60;;;3.35;;
39426;SDS011;25938;48.470;1.486;2022-11-30T16:30:09;5.10;;;3.17;;
39426;SDS011;25938;48.470;1.486;2022-11-30T16:32:38;3.55;;;2.75;;
39426;SDS011;25938;48.470;1.486;2022-11-30T16:35:39;6.03;;;3.17;;
39426;SDS011;25938;48.470;1.486;2022-11-30T16:37:56;5.72;;;3.80;;
39426;SDS011;25938;48.470;1.486;2022-11-30T16:40:22;6.88;;;3.85;;
39426;SDS011;25938;48.470;1.486;2022-11-30T16:42:49;6.03;;;3.13;;
39426;SDS011;25938;48.470;1.486;2022-11-30T16:45:27;5.82;;;3.53;;
39426;SDS011;25938;48.470;1.486;2022-11-30T16:47:56;10.52;;;4.22;;
39426;SDS011;25938;48.470;1.486;2022-11-30T16:50:22;5.95;;;3.45;;
39426;SDS011;25938;48.470;1.486;2022-11-30T16:52:48;6.22;;;3.75;;
39426;SDS011;25938;48.470;1.486;2022-11-30T16:55:15;4.13;;;3.30;;
39426;SDS011;25938;48.470;1.486;2022-11-30T16:57:42;6.22;;;3.58;;
39426;SDS011;25938;48.470;1.486;2022-11-30T17:00:09;6.78;;;3.80;;